createdAt,value
2022-09-15T00:00:39.711Z,93.94
2022-09-15T00:01:39.778Z,93.33
2022-09-15T00:02:39.759Z,93.74
2022-09-15T00:03:39.678Z,93.43
2022-09-15T00:04:39.672Z,93.43
2022-09-15T00:05:39.661Z,93.68
2022-09-15T00:06:39.729Z,94.39
2022-09-15T00:07:39.677Z,95.20
2022-09-15T00:08:39.645Z,95.20
2022-09-15T00:09:39.623Z,95.00
2022-09-15T00:10:39.610Z,94.70
2022-09-15T00:11:39.604Z,95.10
2022-09-15T00:12:39.667Z,94.94
2022-09-15T00:13:39.586Z,95.14
2022-09-15T00:14:39.575Z,95.20
2022-09-15T00:15:39.581Z,95.25
2022-09-15T00:16:39.618Z,95.25
2022-09-15T00:17:39.568Z,95.40
2022-09-15T00:18:39.541Z,94.94
2022-09-15T00:19:39.530Z,94.70
2022-09-15T00:20:39.507Z,95.20
2022-09-15T00:21:39.507Z,95.20
2022-09-15T00:22:39.530Z,94.90
2022-09-15T00:23:39.483Z,94.29
2022-09-15T00:24:39.474Z,94.29
2022-09-15T00:25:39.472Z,94.34
2022-09-15T00:26:39.460Z,94.64
2022-09-15T00:27:39.448Z,94.29
2022-09-15T00:28:39.448Z,94.29
2022-09-15T00:29:39.445Z,93.68
2022-09-15T00:30:39.442Z,94.34
2022-09-15T00:31:39.422Z,95.00
2022-09-15T00:32:39.413Z,94.94
2022-09-15T00:33:39.392Z,94.43
2022-09-15T00:34:39.380Z,95.04
2022-09-15T00:35:39.388Z,94.94
2022-09-15T00:36:39.368Z,95.14
2022-09-15T00:37:39.349Z,94.74
2022-09-15T00:38:39.335Z,95.04
2022-09-15T00:39:39.330Z,94.84
2022-09-15T00:40:39.337Z,94.84
2022-09-15T00:41:39.317Z,94.84
2022-09-15T00:42:39.295Z,95.09
2022-09-15T00:43:39.278Z,95.45
2022-09-15T00:44:39.281Z,95.14
2022-09-15T00:45:39.280Z,95.25
2022-09-15T00:46:39.266Z,94.74
2022-09-15T00:47:39.245Z,95.04
2022-09-15T00:48:39.246Z,94.84
2022-09-15T00:49:39.212Z,94.74
2022-09-15T00:50:39.206Z,95.09
2022-09-15T00:51:40.226Z,94.98
2022-09-15T00:52:39.199Z,95.04
2022-09-15T00:53:39.188Z,95.14
2022-09-15T00:54:39.237Z,94.94
2022-09-15T00:55:39.174Z,95.14
2022-09-15T00:56:39.146Z,94.84
2022-09-15T00:57:39.139Z,94.94
2022-09-15T00:58:39.144Z,94.84
2022-09-15T00:59:39.130Z,95.14
2022-09-15T01:00:39.131Z,94.84
2022-09-15T01:01:39.130Z,94.74
2022-09-15T01:02:39.161Z,95.14
2022-09-15T01:03:39.110Z,94.98
2022-09-15T01:04:39.081Z,94.78
2022-09-15T01:05:39.064Z,95.39
2022-09-15T01:06:39.081Z,95.50
2022-09-15T01:07:39.060Z,95.79
2022-09-15T01:08:39.044Z,95.50
2022-09-15T01:09:40.027Z,95.29
2022-09-15T01:10:39.023Z,95.29
2022-09-15T01:11:39.017Z,95.50
2022-09-15T01:12:39.004Z,95.43
2022-09-15T01:13:39.004Z,95.43
2022-09-15T01:14:38.994Z,95.43
2022-09-15T01:15:38.975Z,95.13
2022-09-15T01:16:39.083Z,95.34
2022-09-15T01:17:38.954Z,95.03
2022-09-15T01:18:38.944Z,95.13
2022-09-15T01:19:38.944Z,95.03
2022-09-15T01:20:38.917Z,94.93
2022-09-15T01:21:38.934Z,94.87
2022-09-15T01:22:38.913Z,95.28
2022-09-15T01:23:38.885Z,95.13
2022-09-15T01:24:38.895Z,94.93
2022-09-15T01:25:38.928Z,95.03
2022-09-15T01:26:38.850Z,94.93
2022-09-15T01:27:42.629Z,95.03
2022-09-15T01:28:39.843Z,95.03
2022-09-15T01:29:38.828Z,94.42
2022-09-15T01:30:38.881Z,94.02
2022-09-15T01:31:38.856Z,93.51
2022-09-15T01:32:38.805Z,93.81
2022-09-15T01:33:38.783Z,93.71
2022-09-15T01:34:38.778Z,93.51
2022-09-15T01:35:38.784Z,92.49
2022-09-15T01:36:38.770Z,93.21
2022-09-15T01:37:38.748Z,93.91
2022-09-15T01:38:38.733Z,94.02
2022-09-15T01:39:38.722Z,93.91
2022-09-15T01:41:10.637Z,93.10
2022-09-15T01:41:38.705Z,94.06
2022-09-15T01:42:38.691Z,93.71
2022-09-15T01:43:38.690Z,92.90
2022-09-15T01:44:38.860Z,93.51
2022-09-15T01:45:38.684Z,93.81
2022-09-15T01:46:38.681Z,93.76
2022-09-15T01:47:38.661Z,93.65
2022-09-15T01:48:38.640Z,93.96
2022-09-15T01:49:38.627Z,93.91
2022-09-15T01:50:38.617Z,93.91
2022-09-15T01:51:38.619Z,93.61
2022-09-15T01:52:38.598Z,93.61
2022-09-15T01:53:38.595Z,93.81
2022-09-15T01:54:38.580Z,92.90
2022-09-15T01:55:38.566Z,93.21
2022-09-15T01:56:38.569Z,92.49
2022-09-15T01:57:38.558Z,92.19
2022-09-15T01:58:38.536Z,92.19
2022-09-15T01:59:38.525Z,91.68
2022-09-15T02:00:38.523Z,92.29
2022-09-15T02:01:38.612Z,92.80
2022-09-15T02:02:38.558Z,92.80
2022-09-15T02:03:38.479Z,92.90
2022-09-15T02:04:38.467Z,92.90
2022-09-15T02:05:38.464Z,92.29
2022-09-15T02:06:38.450Z,92.19
2022-09-15T02:07:38.458Z,92.40
2022-09-15T02:08:38.450Z,92.40
2022-09-15T02:09:38.416Z,92.13
2022-09-15T02:10:38.411Z,92.03
2022-09-15T02:11:38.427Z,92.49
2022-09-15T02:12:38.407Z,92.64
2022-09-15T02:13:38.378Z,92.19
2022-09-15T02:14:38.386Z,92.64
2022-09-15T02:15:38.380Z,92.70
2022-09-15T02:16:38.396Z,92.29
2022-09-15T02:17:38.343Z,92.35
2022-09-15T02:18:38.352Z,92.86
2022-09-15T02:19:38.347Z,92.96
2022-09-15T02:20:38.301Z,92.65
2022-09-15T02:21:39.311Z,92.35
2022-09-15T02:22:38.296Z,92.25
2022-09-15T02:23:38.291Z,92.21
2022-09-15T02:24:38.274Z,91.64
2022-09-15T02:25:38.272Z,91.80
2022-09-15T02:26:38.255Z,91.39
2022-09-15T02:27:38.243Z,90.93
2022-09-15T02:28:38.224Z,91.19
2022-09-15T02:29:38.211Z,91.34
2022-09-15T02:30:38.229Z,91.24
2022-09-15T02:31:38.212Z,90.58
2022-09-15T02:32:38.182Z,89.81
2022-09-15T02:33:38.190Z,89.72
2022-09-15T02:34:38.175Z,90.22
2022-09-15T02:35:38.153Z,90.32
2022-09-15T02:36:38.155Z,90.57
2022-09-15T02:37:38.132Z,90.88
2022-09-15T02:38:38.150Z,90.47
2022-09-15T02:39:38.121Z,91.12
2022-09-15T02:40:38.099Z,91.63
2022-09-15T02:41:38.109Z,91.38
2022-09-15T02:42:38.079Z,91.42
2022-09-15T02:43:38.082Z,91.42
2022-09-15T02:44:38.068Z,91.73
2022-09-15T02:45:38.117Z,91.63
2022-09-15T02:46:38.034Z,91.73
2022-09-15T02:47:38.029Z,91.48
2022-09-15T02:48:38.028Z,92.19
2022-09-15T02:49:38.017Z,91.48
2022-09-15T02:50:38.017Z,91.78
2022-09-15T02:51:38.189Z,91.58
2022-09-15T02:52:37.985Z,91.52
2022-09-15T02:53:37.969Z,91.63
2022-09-15T02:54:37.969Z,91.63
2022-09-15T02:55:37.947Z,91.48
2022-09-15T02:56:37.960Z,91.52
2022-09-15T02:57:37.938Z,90.92
2022-09-15T02:58:37.924Z,91.63
2022-09-15T02:59:37.933Z,91.73
2022-09-15T03:00:37.938Z,91.73
2022-09-15T03:01:37.943Z,91.42
2022-09-15T03:02:37.884Z,92.03
2022-09-15T03:03:42.303Z,92.24
2022-09-15T03:04:38.871Z,91.83
2022-09-15T03:05:37.852Z,91.08
2022-09-15T03:06:37.841Z,90.81
2022-09-15T03:07:37.822Z,91.48
2022-09-15T03:08:37.835Z,91.63
2022-09-15T03:09:37.806Z,91.12
2022-09-15T03:10:37.808Z,90.71
2022-09-15T03:11:37.793Z,90.88
2022-09-15T03:12:37.778Z,91.22
2022-09-15T03:13:37.768Z,91.52
2022-09-15T03:14:37.751Z,92.13
2022-09-15T03:15:37.766Z,92.09
2022-09-15T03:16:37.786Z,91.99
2022-09-15T03:17:37.734Z,91.48
2022-09-15T03:18:37.728Z,91.78
2022-09-15T03:19:37.702Z,91.68
2022-09-15T03:20:37.709Z,91.48
2022-09-15T03:21:38.679Z,91.34
2022-09-15T03:22:37.697Z,91.38
2022-09-15T03:23:37.665Z,91.38
2022-09-15T03:24:37.673Z,91.38
2022-09-15T03:25:37.641Z,91.58
2022-09-15T03:26:37.661Z,91.64
2022-09-15T03:27:37.626Z,91.44
2022-09-15T03:28:37.637Z,91.54
2022-09-15T03:29:37.603Z,91.48
2022-09-15T03:30:37.592Z,91.13
2022-09-15T03:31:37.670Z,90.73
2022-09-15T03:32:37.579Z,91.34
2022-09-15T03:33:37.575Z,91.13
2022-09-15T03:34:37.554Z,90.73
2022-09-15T03:35:37.548Z,90.93
2022-09-15T03:36:37.539Z,90.62
2022-09-15T03:37:37.542Z,90.53
2022-09-15T03:38:37.520Z,90.42
2022-09-15T03:39:37.527Z,90.73
2022-09-15T03:40:37.495Z,90.73
2022-09-15T03:41:37.538Z,90.83
2022-09-15T03:42:37.492Z,90.93
2022-09-15T03:43:37.461Z,91.13
2022-09-15T03:44:37.444Z,91.03
2022-09-15T03:45:37.507Z,91.03
2022-09-15T03:46:37.440Z,90.73
2022-09-15T03:47:37.440Z,91.17
2022-09-15T03:48:37.410Z,91.08
2022-09-15T03:49:37.400Z,91.48
2022-09-15T03:50:37.395Z,91.48
2022-09-15T03:51:37.388Z,91.17
2022-09-15T03:52:37.400Z,91.38
2022-09-15T03:53:37.383Z,91.48
2022-09-15T03:54:37.344Z,91.28
2022-09-15T03:55:37.348Z,91.78
2022-09-15T03:56:37.338Z,91.99
2022-09-15T03:57:37.343Z,91.99
2022-09-15T03:58:37.312Z,91.78
2022-09-15T03:59:37.311Z,91.78
2022-09-15T04:00:37.349Z,91.48
2022-09-15T04:01:37.334Z,91.58
2022-09-15T04:02:38.314Z,91.52
2022-09-15T04:03:43.238Z,91.28
2022-09-15T04:04:39.252Z,91.48
2022-09-15T04:05:37.263Z,91.58
2022-09-15T04:06:37.254Z,91.48
2022-09-15T04:07:37.246Z,91.38
2022-09-15T04:08:37.214Z,91.68
2022-09-15T04:09:37.198Z,91.68
2022-09-15T04:10:37.292Z,91.58
2022-09-15T04:11:37.196Z,91.48
2022-09-15T04:12:37.179Z,91.52
2022-09-15T04:13:37.149Z,91.48
2022-09-15T04:14:38.161Z,91.38
2022-09-15T04:15:37.167Z,91.99
2022-09-15T04:16:37.169Z,91.78
2022-09-15T04:17:37.111Z,91.48
2022-09-15T04:18:37.108Z,91.63
2022-09-15T04:19:37.105Z,91.32
2022-09-15T04:20:37.117Z,91.32
2022-09-15T04:21:37.088Z,91.32
2022-09-15T04:22:37.101Z,91.52
2022-09-15T04:23:37.135Z,91.93
2022-09-15T04:24:37.046Z,91.93
2022-09-15T04:25:37.040Z,92.13
2022-09-15T04:26:37.032Z,91.93
2022-09-15T04:27:37.033Z,92.44
2022-09-15T04:28:37.039Z,92.13
2022-09-15T04:29:37.004Z,92.03
2022-09-15T04:30:36.988Z,92.29
2022-09-15T04:31:37.091Z,92.40
2022-09-15T04:32:37.016Z,92.29
2022-09-15T04:33:36.972Z,91.89
2022-09-15T04:34:41.136Z,91.99
2022-09-15T04:35:37.934Z,92.29
2022-09-15T04:36:36.943Z,91.48
2022-09-15T04:37:36.928Z,91.28
2022-09-15T04:38:36.905Z,91.17
2022-09-15T04:39:36.904Z,91.48
2022-09-15T04:40:36.895Z,91.48
2022-09-15T04:41:36.878Z,91.38
2022-09-15T04:42:36.931Z,91.17
2022-09-15T04:43:36.852Z,90.97
2022-09-15T04:44:36.870Z,91.48
2022-09-15T04:45:36.869Z,91.58
2022-09-15T04:46:36.913Z,91.28
2022-09-15T04:47:36.816Z,90.77
2022-09-15T04:48:36.804Z,90.88
2022-09-15T04:49:36.796Z,91.08
2022-09-15T04:50:37.795Z,91.08
2022-09-15T04:51:36.797Z,91.17
2022-09-15T04:52:36.768Z,90.67
2022-09-15T04:53:36.764Z,90.47
2022-09-15T04:54:36.764Z,90.53
2022-09-15T04:55:36.735Z,90.32
2022-09-15T04:56:36.757Z,90.47
2022-09-15T04:57:36.719Z,90.57
2022-09-15T04:58:36.699Z,90.57
2022-09-15T04:59:36.692Z,90.16
2022-09-15T05:00:36.742Z,89.86
2022-09-15T05:01:36.712Z,90.67
2022-09-15T05:02:36.661Z,91.08
2022-09-15T05:03:37.653Z,90.16
2022-09-15T05:04:36.657Z,90.26
2022-09-15T05:05:36.639Z,91.08
2022-09-15T05:06:36.624Z,91.24
2022-09-15T05:07:36.631Z,91.17
2022-09-15T05:08:36.612Z,91.24
2022-09-15T05:09:36.635Z,91.58
2022-09-15T05:10:36.603Z,91.58
2022-09-15T05:11:36.586Z,91.17
2022-09-15T05:12:36.561Z,91.48
2022-09-15T05:13:36.563Z,91.38
2022-09-15T05:14:36.553Z,91.89
2022-09-15T05:15:36.540Z,91.99
2022-09-15T05:16:36.589Z,91.89
2022-09-15T05:17:36.539Z,91.58
2022-09-15T05:18:36.503Z,91.58
2022-09-15T05:19:36.522Z,91.58
2022-09-15T05:20:36.488Z,91.68
2022-09-15T05:21:36.470Z,91.28
2022-09-15T05:22:41.461Z,91.38
2022-09-15T05:23:38.450Z,91.38
2022-09-15T05:24:37.457Z,91.38
2022-09-15T05:25:36.440Z,91.48
2022-09-15T05:26:36.424Z,91.48
2022-09-15T05:27:36.413Z,91.48
2022-09-15T05:28:36.393Z,91.08
2022-09-15T05:29:36.407Z,90.88
2022-09-15T05:30:40.507Z,91.03
2022-09-15T05:31:38.443Z,90.93
2022-09-15T05:32:36.383Z,90.32
2022-09-15T05:33:36.373Z,90.36
2022-09-15T05:34:36.344Z,90.22
2022-09-15T05:35:36.330Z,90.16
2022-09-15T05:36:36.339Z,90.16
2022-09-15T05:37:36.318Z,90.36
2022-09-15T05:38:36.326Z,91.28
2022-09-15T05:39:36.293Z,91.28
2022-09-15T05:40:36.319Z,91.17
2022-09-15T05:41:36.276Z,91.24
2022-09-15T05:42:36.273Z,90.83
2022-09-15T05:43:36.321Z,90.53
2022-09-15T05:44:36.263Z,90.02
2022-09-15T05:45:36.254Z,90.26
2022-09-15T05:46:36.292Z,90.77
2022-09-15T05:47:36.216Z,90.88
2022-09-15T05:48:36.211Z,91.17
2022-09-15T05:49:36.210Z,91.28
2022-09-15T05:50:36.202Z,91.17
2022-09-15T05:51:36.170Z,91.17
2022-09-15T05:52:36.190Z,91.48
2022-09-15T05:53:36.173Z,91.48
2022-09-15T05:54:36.146Z,91.24
2022-09-15T05:55:36.137Z,91.03
2022-09-15T05:56:36.152Z,91.24
2022-09-15T05:57:36.115Z,90.69
2022-09-15T05:58:36.107Z,90.28
2022-09-15T05:59:36.099Z,90.03
2022-09-15T06:00:36.088Z,89.63
2022-09-15T06:01:36.122Z,89.28
2022-09-15T06:02:36.103Z,88.37
2022-09-15T06:03:36.075Z,87.56
2022-09-15T06:04:36.048Z,88.07
2022-09-15T06:05:36.050Z,87.66
2022-09-15T06:06:36.025Z,87.26
2022-09-15T06:07:36.096Z,87.46
2022-09-15T06:08:36.058Z,87.77
2022-09-15T06:09:35.995Z,86.76
2022-09-15T06:10:35.982Z,87.40
2022-09-15T06:11:35.971Z,87.91
2022-09-15T06:12:35.966Z,87.36
2022-09-15T06:13:35.945Z,87.60
2022-09-15T06:14:36.044Z,87.60
2022-09-15T06:15:35.941Z,87.91
2022-09-15T06:16:36.023Z,88.01
2022-09-15T06:17:35.921Z,88.01
2022-09-15T06:18:35.904Z,88.05
2022-09-15T06:19:35.914Z,87.71
2022-09-15T06:20:35.924Z,88.15
2022-09-15T06:21:35.874Z,89.43
2022-09-15T06:22:35.889Z,89.63
2022-09-15T06:23:35.874Z,89.83
2022-09-15T06:24:35.848Z,90.14
2022-09-15T06:25:35.912Z,89.73
2022-09-15T06:26:35.839Z,89.53
2022-09-15T06:27:35.840Z,89.53
2022-09-15T06:28:35.820Z,89.99
2022-09-15T06:29:35.807Z,89.18
2022-09-15T06:30:35.802Z,89.32
2022-09-15T06:31:35.959Z,88.98
2022-09-15T06:32:35.796Z,88.78
2022-09-15T06:33:35.759Z,88.88
2022-09-15T06:34:35.745Z,88.17
2022-09-15T06:35:35.771Z,87.56
2022-09-15T06:36:35.715Z,87.32
2022-09-15T06:37:35.757Z,87.02
2022-09-15T06:38:35.701Z,86.31
2022-09-15T06:39:35.701Z,86.10
2022-09-15T06:40:35.781Z,85.60
2022-09-15T06:41:58.815Z,85.80
2022-09-15T06:42:37.693Z,84.99
2022-09-15T06:43:35.658Z,83.17
2022-09-15T06:44:36.703Z,83.11
2022-09-15T06:45:35.643Z,84.08
2022-09-15T06:46:35.657Z,83.07
2022-09-15T06:47:35.642Z,83.98
2022-09-15T06:48:35.606Z,83.33
2022-09-15T06:49:35.636Z,83.27
2022-09-15T06:50:35.581Z,83.03
2022-09-15T06:51:35.619Z,83.03
2022-09-15T06:52:35.610Z,82.12
2022-09-15T06:53:35.563Z,81.85
2022-09-15T06:54:35.542Z,81.82
2022-09-15T06:55:35.548Z,80.57
2022-09-15T06:56:38.127Z,79.72
2022-09-15T06:57:35.522Z,78.77
2022-09-15T06:58:35.563Z,79.08
2022-09-15T06:59:35.522Z,78.17
2022-09-15T07:00:35.485Z,77.42
2022-09-15T07:01:35.477Z,78.53
2022-09-15T07:02:35.621Z,77.42
2022-09-15T07:03:35.555Z,77.46
2022-09-15T07:04:35.480Z,77.83
2022-09-15T07:05:35.469Z,76.68
2022-09-15T07:06:35.445Z,75.47
2022-09-15T07:07:35.436Z,75.87
2022-09-15T07:08:35.415Z,75.77
2022-09-15T07:09:36.021Z,75.98
2022-09-15T07:10:35.402Z,75.03
2022-09-15T07:11:35.462Z,75.34
2022-09-15T07:12:35.373Z,75.13
2022-09-15T07:13:35.364Z,75.13
2022-09-15T07:14:35.348Z,75.70
2022-09-15T07:15:35.337Z,75.40
2022-09-15T07:16:35.437Z,74.39
2022-09-15T07:17:35.330Z,74.49
2022-09-15T07:18:37.655Z,74.49
2022-09-15T07:19:36.301Z,74.99
2022-09-15T07:20:35.278Z,73.85
2022-09-15T07:21:35.273Z,75.26
2022-09-15T07:22:35.291Z,73.52
2022-09-15T07:23:35.249Z,73.21
2022-09-15T07:24:35.251Z,71.67
2022-09-15T07:25:35.232Z,71.87
2022-09-15T07:26:35.232Z,72.74
2022-09-15T07:27:35.221Z,72.67
2022-09-15T07:28:35.244Z,73.38
2022-09-15T07:29:37.827Z,71.16
2022-09-15T07:30:36.188Z,72.20
2022-09-15T07:31:35.242Z,72.81
2022-09-15T07:32:35.163Z,73.21
2022-09-15T07:33:35.174Z,74.32
2022-09-15T07:34:35.137Z,73.61
2022-09-15T07:35:35.153Z,74.89
2022-09-15T07:36:35.135Z,73.88
2022-09-15T07:37:35.109Z,75.19
2022-09-15T07:38:35.100Z,73.28
2022-09-15T07:39:35.142Z,71.83
2022-09-15T07:40:35.134Z,71.63
2022-09-15T07:42:06.961Z,71.53
2022-09-15T07:42:35.606Z,72.61
2022-09-15T07:43:36.053Z,71.36
2022-09-15T07:44:35.043Z,71.77
2022-09-15T07:45:35.031Z,71.77
2022-09-15T07:46:35.008Z,73.44
2022-09-15T07:47:35.004Z,73.11
2022-09-15T07:48:34.996Z,71.00
2022-09-15T07:49:34.988Z,73.18
2022-09-15T07:50:35.971Z,73.58
2022-09-15T07:51:34.961Z,72.81
2022-09-15T07:52:34.960Z,71.30
2022-09-15T07:53:34.948Z,71.50
2022-09-15T07:54:34.945Z,71.50
2022-09-15T07:55:34.918Z,71.60
2022-09-15T07:56:34.908Z,71.33
2022-09-15T07:57:34.913Z,71.50
2022-09-15T07:58:34.877Z,71.36
2022-09-15T07:59:39.333Z,71.90
2022-09-15T08:00:35.917Z,70.43
2022-09-15T08:01:34.909Z,69.82
2022-09-15T08:02:34.857Z,68.52
2022-09-15T08:03:34.835Z,68.25
2022-09-15T08:04:34.831Z,70.36
2022-09-15T08:05:39.417Z,69.35
2022-09-15T08:06:36.809Z,68.76
2022-09-15T08:07:34.795Z,69.09
2022-09-15T08:08:34.814Z,67.76
2022-09-15T08:09:34.779Z,69.49
2022-09-15T08:10:34.760Z,66.55
2022-09-15T08:11:34.771Z,67.05
2022-09-15T08:12:34.743Z,67.88
2022-09-15T08:13:34.762Z,67.98
2022-09-15T08:14:34.736Z,67.05
2022-09-15T08:15:34.730Z,66.95
2022-09-15T08:16:34.735Z,69.06
2022-09-15T08:17:34.695Z,67.85
2022-09-15T08:18:34.707Z,66.55
2022-09-15T08:19:34.710Z,67.05
2022-09-15T08:20:34.662Z,67.75
2022-09-15T08:21:34.677Z,65.81
2022-09-15T08:22:34.652Z,67.02
2022-09-15T08:23:34.656Z,69.12
2022-09-15T08:24:34.630Z,67.61
2022-09-15T08:25:34.621Z,66.64
2022-09-15T08:26:34.630Z,67.25
2022-09-15T08:27:34.614Z,68.99
2022-09-15T08:28:34.580Z,68.79
2022-09-15T08:29:34.573Z,67.88
2022-09-15T08:30:34.579Z,69.39
2022-09-15T08:31:34.685Z,67.08
2022-09-15T08:32:34.549Z,67.05
2022-09-15T08:33:34.540Z,70.36
2022-09-15T08:34:34.525Z,68.65
2022-09-15T08:35:34.512Z,67.11
2022-09-15T08:36:34.568Z,69.96
2022-09-15T08:37:34.500Z,68.02
2022-09-15T08:38:34.483Z,68.41
2022-09-15T08:39:34.470Z,67.78
2022-09-15T08:40:34.545Z,66.98
2022-09-15T08:41:34.477Z,68.22
2022-09-15T08:42:34.443Z,67.69
2022-09-15T08:43:34.528Z,67.69
2022-09-15T08:44:34.427Z,66.82
2022-09-15T08:45:34.424Z,66.91
2022-09-15T08:46:34.445Z,67.79
2022-09-15T08:47:34.397Z,67.15
2022-09-15T08:48:34.394Z,66.75
2022-09-15T08:49:50.688Z,65.31
2022-09-15T08:50:36.380Z,65.65
2022-09-15T08:51:34.371Z,64.65
2022-09-15T08:52:34.343Z,64.68
2022-09-15T08:53:34.331Z,65.44
2022-09-15T08:54:34.399Z,67.88
2022-09-15T08:55:34.314Z,68.79
2022-09-15T08:56:34.315Z,69.09
2022-09-15T08:57:34.303Z,70.32
2022-09-15T08:58:34.313Z,68.21
2022-09-15T08:59:34.293Z,70.56
2022-09-15T09:00:34.310Z,67.31
2022-09-15T09:01:35.341Z,67.14
2022-09-15T09:02:34.295Z,67.85
2022-09-15T09:03:34.273Z,70.36
2022-09-15T09:04:34.220Z,70.89
2022-09-15T09:05:34.241Z,71.23
2022-09-15T09:06:34.210Z,71.77
2022-09-15T09:07:34.206Z,73.61
2022-09-15T09:08:34.185Z,74.12
2022-09-15T09:09:34.181Z,73.92
2022-09-15T09:10:34.191Z,73.72
2022-09-15T09:11:34.165Z,74.15
2022-09-15T09:12:34.143Z,74.05
2022-09-15T09:13:35.684Z,73.72
2022-09-15T09:14:35.129Z,73.72
2022-09-15T09:15:34.168Z,73.92
2022-09-15T09:16:34.139Z,72.77
2022-09-15T09:17:34.102Z,73.55
2022-09-15T09:18:34.102Z,72.77
2022-09-15T09:19:34.093Z,73.44
2022-09-15T09:20:34.051Z,72.03
2022-09-15T09:21:35.083Z,71.70
2022-09-15T09:22:34.054Z,70.73
2022-09-15T09:23:34.025Z,69.96
2022-09-15T09:24:34.017Z,68.29
2022-09-15T09:25:34.004Z,66.88
2022-09-15T09:26:35.013Z,64.75
2022-09-15T09:27:33.988Z,66.75
2022-09-15T09:28:33.978Z,64.54
2022-09-15T09:29:33.975Z,65.12
2022-09-15T09:30:34.157Z,66.66
2022-09-15T09:31:33.953Z,63.95
2022-09-15T09:32:33.950Z,63.15
2022-09-15T09:33:33.942Z,63.95
2022-09-15T09:34:33.923Z,62.15
2022-09-15T09:35:33.927Z,64.25
2022-09-15T09:36:33.898Z,62.98
2022-09-15T09:37:33.887Z,63.31
2022-09-15T09:38:33.876Z,63.45
2022-09-15T09:39:33.892Z,66.55
2022-09-15T09:40:33.933Z,64.45
2022-09-15T09:41:33.852Z,63.81
2022-09-15T09:42:33.840Z,63.31
2022-09-15T09:43:33.828Z,64.31
2022-09-15T09:44:33.824Z,63.71
2022-09-15T09:45:33.825Z,62.41
2022-09-15T09:46:33.890Z,63.01
2022-09-15T09:47:33.794Z,62.11
2022-09-15T09:48:33.779Z,63.11
2022-09-15T09:49:33.779Z,64.39
2022-09-15T09:50:33.766Z,65.09
2022-09-15T09:51:33.773Z,64.62
2022-09-15T09:52:33.764Z,65.12
2022-09-15T09:53:33.733Z,64.75
2022-09-15T09:54:33.725Z,67.79
2022-09-15T09:55:33.711Z,68.12
2022-09-15T09:56:33.702Z,66.31
2022-09-15T09:57:38.575Z,65.88
2022-09-15T09:58:34.686Z,67.02
2022-09-15T09:59:33.686Z,66.91
2022-09-15T10:00:33.683Z,69.22
2022-09-15T10:01:33.672Z,67.02
2022-09-15T10:02:33.669Z,69.02
2022-09-15T10:03:33.634Z,66.61
2022-09-15T10:04:33.660Z,65.81
2022-09-15T10:05:33.615Z,64.43
2022-09-15T10:06:33.609Z,66.67
2022-09-15T10:07:33.623Z,66.67
2022-09-15T10:08:33.622Z,68.05
2022-09-15T10:09:33.634Z,66.98
2022-09-15T10:10:33.580Z,67.78
2022-09-15T10:11:33.581Z,68.08
2022-09-15T10:12:33.614Z,67.71
2022-09-15T10:13:33.568Z,67.01
2022-09-15T10:14:33.618Z,68.82
2022-09-15T10:15:33.561Z,68.72
2022-09-15T10:16:33.585Z,67.74
2022-09-15T10:17:33.517Z,68.65
2022-09-15T10:18:33.497Z,68.75
2022-09-15T10:19:33.494Z,68.02
2022-09-15T10:20:33.489Z,66.41
2022-09-15T10:21:33.466Z,67.08
2022-09-15T10:22:33.483Z,67.28
2022-09-15T10:23:33.460Z,68.65
2022-09-15T10:24:33.459Z,68.68
2022-09-15T10:25:49.668Z,67.88
2022-09-15T10:26:35.428Z,69.49
2022-09-15T10:27:33.415Z,68.21
2022-09-15T10:28:33.410Z,69.32
2022-09-15T10:29:33.380Z,67.84
2022-09-15T10:30:33.390Z,68.24
2022-09-15T10:31:33.422Z,69.15
2022-09-15T10:32:33.353Z,69.35
2022-09-15T10:33:33.345Z,69.15
2022-09-15T10:34:33.345Z,69.25
2022-09-15T10:35:33.323Z,67.27
2022-09-15T10:36:33.345Z,67.94
2022-09-15T10:37:33.312Z,68.24
2022-09-15T10:38:33.323Z,67.37
2022-09-15T10:39:33.288Z,68.01
2022-09-15T10:40:33.375Z,67.94
2022-09-15T10:41:33.291Z,68.24
2022-09-15T10:42:33.280Z,69.25
2022-09-15T10:43:33.252Z,69.75
2022-09-15T10:44:33.248Z,70.26
2022-09-15T10:45:33.313Z,70.49
2022-09-15T10:46:36.399Z,71.06
2022-09-15T10:47:35.227Z,70.19
2022-09-15T10:48:33.242Z,70.39
2022-09-15T10:49:33.207Z,70.69
2022-09-15T10:50:33.197Z,70.73
2022-09-15T10:51:33.170Z,70.62
2022-09-15T10:52:33.169Z,71.13
2022-09-15T10:53:33.144Z,71.47
2022-09-15T10:54:33.138Z,72.07
2022-09-15T10:55:51.738Z,72.64
2022-09-15T10:56:35.123Z,71.77
2022-09-15T10:57:33.130Z,71.47
2022-09-15T10:58:33.121Z,72.64
2022-09-15T10:59:33.092Z,71.84
2022-09-15T11:00:33.121Z,73.05
2022-09-15T11:01:33.080Z,72.64
2022-09-15T11:02:33.148Z,72.51
2022-09-15T11:03:33.051Z,72.41
2022-09-15T11:04:33.079Z,71.80
2022-09-15T11:05:33.028Z,71.50
2022-09-15T11:06:33.024Z,71.60
2022-09-15T11:07:33.006Z,71.91
2022-09-15T11:08:33.014Z,71.91
2022-09-15T11:09:34.006Z,70.09
2022-09-15T11:10:32.987Z,71.70
2022-09-15T11:11:32.965Z,71.60
2022-09-15T11:12:32.984Z,71.67
2022-09-15T11:13:32.973Z,72.47
2022-09-15T11:14:32.951Z,72.54
2022-09-15T11:15:32.943Z,70.42
2022-09-15T11:16:32.985Z,70.79
2022-09-15T11:17:32.919Z,69.09
2022-09-15T11:18:32.937Z,69.21
2022-09-15T11:19:32.929Z,70.83
2022-09-15T11:20:32.890Z,69.12
2022-09-15T11:21:32.888Z,70.36
2022-09-15T11:22:32.869Z,71.00
2022-09-15T11:23:32.855Z,71.60
2022-09-15T11:24:32.861Z,71.00
2022-09-15T11:25:32.853Z,72.00
2022-09-15T11:26:32.830Z,71.30
2022-09-15T11:27:32.813Z,72.17
2022-09-15T11:28:32.805Z,71.50
2022-09-15T11:29:32.803Z,70.69
2022-09-15T11:30:32.797Z,71.26
2022-09-15T11:31:32.848Z,71.97
2022-09-15T11:32:32.795Z,70.36
2022-09-15T11:33:32.752Z,70.66
2022-09-15T11:34:32.743Z,70.06
2022-09-15T11:35:32.758Z,69.35
2022-09-15T11:36:32.736Z,70.29
2022-09-15T11:37:32.753Z,69.75
2022-09-15T11:38:32.723Z,69.59
2022-09-15T11:39:32.701Z,70.86
2022-09-15T11:40:32.719Z,70.46
2022-09-15T11:41:32.671Z,70.86
2022-09-15T11:42:32.691Z,69.55
2022-09-15T11:43:32.659Z,68.34
2022-09-15T11:44:32.639Z,70.76
2022-09-15T11:45:32.637Z,69.21
2022-09-15T11:46:32.649Z,67.97
2022-09-15T11:47:32.623Z,67.94
2022-09-15T11:48:32.624Z,68.44
2022-09-15T11:49:32.594Z,67.24
2022-09-15T11:50:32.590Z,66.00
2022-09-15T11:51:32.571Z,68.28
2022-09-15T11:52:32.562Z,67.18
2022-09-15T11:53:32.575Z,65.36
2022-09-15T11:54:32.549Z,65.16
2022-09-15T11:55:32.552Z,64.76
2022-09-15T11:56:32.570Z,65.06
2022-09-15T11:57:32.524Z,65.67
2022-09-15T11:58:32.504Z,64.16
2022-09-15T11:59:32.510Z,65.26
2022-09-15T12:00:32.492Z,63.45
2022-09-15T12:01:32.534Z,61.34
2022-09-15T12:02:32.520Z,60.24
2022-09-15T12:03:32.463Z,60.27
2022-09-15T12:04:32.458Z,58.98
2022-09-15T12:05:32.435Z,59.48
2022-09-15T12:06:32.434Z,58.88
2022-09-15T12:07:32.437Z,61.20
2022-09-15T12:08:32.413Z,61.53
2022-09-15T12:09:32.396Z,61.83
2022-09-15T12:10:32.396Z,61.03
2022-09-15T12:11:32.408Z,61.10
2022-09-15T12:12:32.620Z,60.69
2022-09-15T12:13:32.372Z,61.57
2022-09-15T12:14:32.373Z,61.27
2022-09-15T12:15:32.345Z,61.70
2022-09-15T12:16:32.336Z,62.51
2022-09-15T12:17:32.353Z,62.81
2022-09-15T12:18:39.865Z,63.18
2022-09-15T12:19:34.309Z,63.08
2022-09-15T12:20:32.312Z,63.65
2022-09-15T12:21:32.296Z,61.74
2022-09-15T12:22:32.307Z,61.65
2022-09-15T12:23:32.279Z,61.91
2022-09-15T12:24:32.262Z,61.21
2022-09-15T12:25:32.246Z,61.31
2022-09-15T12:26:32.251Z,60.41
2022-09-15T12:27:32.229Z,61.01
2022-09-15T12:28:32.236Z,62.12
2022-09-15T12:29:32.226Z,59.41
2022-09-15T12:30:32.191Z,59.80
2022-09-15T12:31:32.247Z,59.60
2022-09-15T12:32:32.183Z,62.82
2022-09-15T12:33:51.057Z,60.61
2022-09-15T12:34:32.180Z,61.14
2022-09-15T12:35:32.148Z,59.50
2022-09-15T12:36:32.147Z,60.44
2022-09-15T12:37:32.119Z,60.44
2022-09-15T12:38:32.115Z,59.26
2022-09-15T12:39:32.122Z,60.27
2022-09-15T12:40:32.155Z,59.36
2022-09-15T12:41:32.080Z,59.74
2022-09-15T12:42:32.072Z,58.62
2022-09-15T12:43:32.075Z,57.52
2022-09-15T12:44:32.056Z,58.47
2022-09-15T12:45:32.065Z,59.05
2022-09-15T12:46:32.097Z,58.31
2022-09-15T12:47:32.079Z,57.98
2022-09-15T12:48:50.917Z,54.90
2022-09-15T12:49:53.006Z,57.51
2022-09-15T12:50:32.009Z,55.71
2022-09-15T12:51:31.993Z,54.47
2022-09-15T12:52:31.997Z,53.27